sensor_id;sensor_type;location;lat;lon;timestamp;temperature;humidity
19555;DHT22;9924;50.828;6.440;2022-08-19T00:00:27;17.00;99.90
19555;DHT22;9924;50.828;6.440;2022-08-19T00:02:53;17.00;99.90
19555;DHT22;9924;50.828;6.440;2022-08-19T00:05:20;17.00;99.90
19555;DHT22;9924;50.828;6.440;2022-08-19T00:07:47;17.00;99.90
19555;DHT22;9924;50.828;6.440;2022-08-19T00:10:14;17.00;99.90
19555;DHT22;9924;50.828;6.440;2022-08-19T00:12:40;16.80;99.90
19555;DHT22;9924;50.828;6.440;2022-08-19T00:15:08;16.80;99.90
19555;DHT22;9924;50.828;6.440;2022-08-19T00:17:37;16.90;99.90
19555;DHT22;9924;50.828;6.440;2022-08-19T00:20:03;16.90;99.90
19555;DHT22;9924;50.828;6.440;2022-08-19T00:22:29;16.80;99.90
19555;DHT22;9924;50.828;6.440;2022-08-19T00:24:55;16.80;99.90
19555;DHT22;9924;50.828;6.440;2022-08-19T00:27:21;16.80;99.90
19555;DHT22;9924;50.828;6.440;2022-08-19T00:29:47;16.80;99.90
19555;DHT22;9924;50.828;6.440;2022-08-19T00:32:12;16.70;99.90
19555;DHT22;9924;50.828;6.440;2022-08-19T00:34:38;16.60;99.90
19555;DHT22;9924;50.828;6.440;2022-08-19T00:37:04;16.60;99.90
19555;DHT22;9924;50.828;6.440;2022-08-19T00:39:30;16.60;99.90
19555;DHT22;9924;50.828;6.440;2022-08-19T00:41:55;16.50;99.90
19555;DHT22;9924;50.828;6.440;2022-08-19T00:44:27;16.40;99.90
19555;DHT22;9924;50.828;6.440;2022-08-19T00:46:56;16.40;99.90
19555;DHT22;9924;50.828;6.440;2022-08-19T00:49:26;16.50;99.90
19555;DHT22;9924;50.828;6.440;2022-08-19T00:52:02;16.50;99.90
19555;DHT22;9924;50.828;6.440;2022-08-19T00:54:28;16.50;99.90
19555;DHT22;9924;50.828;6.440;2022-08-19T00:56:58;16.50;99.90
19555;DHT22;9924;50.828;6.440;2022-08-19T00:59:25;16.50;99.90
19555;DHT22;9924;50.828;6.440;2022-08-19T01:01:51;16.40;99.90
19555;DHT22;9924;50.828;6.440;2022-08-19T01:04:17;16.40;99.90
19555;DHT22;9924;50.828;6.440;2022-08-19T01:06:43;16.50;99.90
19555;DHT22;9924;50.828;6.440;2022-08-19T01:09:09;16.50;99.90
19555;DHT22;9924;50.828;6.440;2022-08-19T01:11:37;16.40;99.90
19555;DHT22;9924;50.828;6.440;2022-08-19T01:14:05;16.30;99.90
19555;DHT22;9924;50.828;6.440;2022-08-19T01:16:32;16.40;99.90
19555;DHT22;9924;50.828;6.440;2022-08-19T01:18:58;16.30;99.90
19555;DHT22;9924;50.828;6.440;2022-08-19T01:21:31;16.20;99.90
19555;DHT22;9924;50.828;6.440;2022-08-19T01:23:58;16.20;99.90
19555;DHT22;9924;50.828;6.440;2022-08-19T01:26:25;16.20;99.90
19555;DHT22;9924;50.828;6.440;2022-08-19T01:28:53;16.20;99.90
19555;DHT22;9924;50.828;6.440;2022-08-19T01:31:25;16.20;99.90
19555;DHT22;9924;50.828;6.440;2022-08-19T01:33:54;16.20;99.90
19555;DHT22;9924;50.828;6.440;2022-08-19T01:36:32;16.20;99.90
19555;DHT22;9924;50.828;6.440;2022-08-19T01:38:59;16.30;99.90
19555;DHT22;9924;50.828;6.440;2022-08-19T01:41:25;16.30;99.90
19555;DHT22;9924;50.828;6.440;2022-08-19T01:43:52;16.30;99.90
19555;DHT22;9924;50.828;6.440;2022-08-19T01:46:18;16.30;99.90
19555;DHT22;9924;50.828;6.440;2022-08-19T01:48:45;16.30;99.90
19555;DHT22;9924;50.828;6.440;2022-08-19T01:51:11;16.30;99.90
19555;DHT22;9924;50.828;6.440;2022-08-19T01:53:38;16.30;99.90
19555;DHT22;9924;50.828;6.440;2022-08-19T01:56:05;16.20;99.90
19555;DHT22;9924;50.828;6.440;2022-08-19T01:58:35;16.10;99.90
19555;DHT22;9924;50.828;6.440;2022-08-19T02:01:03;16.20;99.90
19555;DHT22;9924;50.828;6.440;2022-08-19T02:03:29;16.20;99.90
19555;DHT22;9924;50.828;6.440;2022-08-19T02:05:57;16.30;99.90
19555;DHT22;9924;50.828;6.440;2022-08-19T02:08:26;16.20;99.90
19555;DHT22;9924;50.828;6.440;2022-08-19T02:10:52;16.20;99.90
19555;DHT22;9924;50.828;6.440;2022-08-19T02:13:18;16.00;99.90
19555;DHT22;9924;50.828;6.440;2022-08-19T02:15:43;16.00;99.90
19555;DHT22;9924;50.828;6.440;2022-08-19T02:18:09;15.90;99.90
19555;DHT22;9924;50.828;6.440;2022-08-19T02:20:37;15.90;99.90
19555;DHT22;9924;50.828;6.440;2022-08-19T02:23:04;15.90;99.90
19555;DHT22;9924;50.828;6.440;2022-08-19T02:25:30;16.00;99.90
19555;DHT22;9924;50.828;6.440;2022-08-19T02:27:56;16.00;99.90
19555;DHT22;9924;50.828;6.440;2022-08-19T02:30:22;16.10;99.90
19555;DHT22;9924;50.828;6.440;2022-08-19T02:32:48;16.10;99.90
19555;DHT22;9924;50.828;6.440;2022-08-19T02:35:14;16.10;99.90
19555;DHT22;9924;50.828;6.440;2022-08-19T02:37:41;16.10;99.90
19555;DHT22;9924;50.828;6.440;2022-08-19T02:40:27;16.10;99.90
19555;DHT22;9924;50.828;6.440;2022-08-19T02:42:53;16.10;99.90
19555;DHT22;9924;50.828;6.440;2022-08-19T02:45:19;16.10;99.90
19555;DHT22;9924;50.828;6.440;2022-08-19T02:47:45;16.20;99.90
19555;DHT22;9924;50.828;6.440;2022-08-19T02:50:11;16.30;99.90
19555;DHT22;9924;50.828;6.440;2022-08-19T02:52:36;16.40;99.90
19555;DHT22;9924;50.828;6.440;2022-08-19T02:55:03;16.50;99.90
19555;DHT22;9924;50.828;6.440;2022-08-19T02:57:30;16.60;99.90
19555;DHT22;9924;50.828;6.440;2022-08-19T02:59:57;16.60;99.90
19555;DHT22;9924;50.828;6.440;2022-08-19T03:02:23;16.70;99.90
19555;DHT22;9924;50.828;6.440;2022-08-19T03:04:48;16.70;99.90
19555;DHT22;9924;50.828;6.440;2022-08-19T03:07:16;16.70;99.90
19555;DHT22;9924;50.828;6.440;2022-08-19T03:09:43;16.80;99.90
19555;DHT22;9924;50.828;6.440;2022-08-19T03:12:08;16.80;99.90
19555;DHT22;9924;50.828;6.440;2022-08-19T03:14:35;16.90;99.90
19555;DHT22;9924;50.828;6.440;2022-08-19T03:17:01;16.90;99.90
19555;DHT22;9924;50.828;6.440;2022-08-19T03:19:28;16.90;99.90
19555;DHT22;9924;50.828;6.440;2022-08-19T03:21:54;17.00;99.90
19555;DHT22;9924;50.828;6.440;2022-08-19T03:24:21;17.00;99.90
19555;DHT22;9924;50.828;6.440;2022-08-19T03:26:49;17.00;99.90
19555;DHT22;9924;50.828;6.440;2022-08-19T03:29:17;16.90;99.90
19555;DHT22;9924;50.828;6.440;2022-08-19T03:31:44;17.00;99.90
19555;DHT22;9924;50.828;6.440;2022-08-19T03:34:12;17.00;99.90
19555;DHT22;9924;50.828;6.440;2022-08-19T03:36:38;17.00;99.90
19555;DHT22;9924;50.828;6.440;2022-08-19T03:39:04;17.00;99.90
19555;DHT22;9924;50.828;6.440;2022-08-19T03:41:33;17.10;99.90
19555;DHT22;9924;50.828;6.440;2022-08-19T03:44:01;17.10;99.90
19555;DHT22;9924;50.828;6.440;2022-08-19T03:46:30;17.10;99.90
19555;DHT22;9924;50.828;6.440;2022-08-19T03:48:58;17.20;99.90
19555;DHT22;9924;50.828;6.440;2022-08-19T03:51:29;17.20;99.90
19555;DHT22;9924;50.828;6.440;2022-08-19T03:54:00;17.20;99.90
19555;DHT22;9924;50.828;6.440;2022-08-19T03:56:27;17.20;99.90
19555;DHT22;9924;50.828;6.440;2022-08-19T03:58:57;17.30;99.90
19555;DHT22;9924;50.828;6.440;2022-08-19T04:01:27;17.30;99.90
19555;DHT22;9924;50.828;6.440;2022-08-19T04:03:57;17.30;99.90
19555;DHT22;9924;50.828;6.440;2022-08-19T04:06:26;17.30;99.90
19555;DHT22;9924;50.828;6.440;2022-08-19T04:08:54;17.30;99.90
19555;DHT22;9924;50.828;6.440;2022-08-19T04:11:25;17.30;99.90
19555;DHT22;9924;50.828;6.440;2022-08-19T04:13:53;17.30;99.90
19555;DHT22;9924;50.828;6.440;2022-08-19T04:16:21;17.30;99.90
19555;DHT22;9924;50.828;6.440;2022-08-19T04:18:47;17.30;99.90
19555;DHT22;9924;50.828;6.440;2022-08-19T04:21:20;17.30;99.90
19555;DHT22;9924;50.828;6.440;2022-08-19T04:23:46;17.30;99.90
19555;DHT22;9924;50.828;6.440;2022-08-19T04:26:17;17.30;99.90
19555;DHT22;9924;50.828;6.440;2022-08-19T04:28:44;17.20;99.90
19555;DHT22;9924;50.828;6.440;2022-08-19T04:31:15;17.20;99.90
19555;DHT22;9924;50.828;6.440;2022-08-19T04:33:41;17.20;99.90
19555;DHT22;9924;50.828;6.440;2022-08-19T04:36:08;17.10;99.90
19555;DHT22;9924;50.828;6.440;2022-08-19T04:38:41;17.10;99.90
19555;DHT22;9924;50.828;6.440;2022-08-19T04:41:07;17.00;99.90
19555;DHT22;9924;50.828;6.440;2022-08-19T04:43:51;17.00;99.90
19555;DHT22;9924;50.828;6.440;2022-08-19T04:46:16;17.00;99.90
19555;DHT22;9924;50.828;6.440;2022-08-19T04:48:42;17.00;99.90
19555;DHT22;9924;50.828;6.440;2022-08-19T04:51:10;16.90;99.90
19555;DHT22;9924;50.828;6.440;2022-08-19T04:53:40;16.90;99.90
19555;DHT22;9924;50.828;6.440;2022-08-19T04:56:08;16.90;99.90
19555;DHT22;9924;50.828;6.440;2022-08-19T04:58:36;17.00;99.90
19555;DHT22;9924;50.828;6.440;2022-08-19T05:01:02;17.10;99.90
19555;DHT22;9924;50.828;6.440;2022-08-19T05:03:28;17.20;99.90
19555;DHT22;9924;50.828;6.440;2022-08-19T05:06:05;17.30;99.90
19555;DHT22;9924;50.828;6.440;2022-08-19T05:08:34;17.30;99.90
19555;DHT22;9924;50.828;6.440;2022-08-19T05:11:00;17.30;99.90
19555;DHT22;9924;50.828;6.440;2022-08-19T05:13:26;17.30;99.90
19555;DHT22;9924;50.828;6.440;2022-08-19T05:15:58;17.30;99.90
19555;DHT22;9924;50.828;6.440;2022-08-19T05:18:25;17.30;99.90
19555;DHT22;9924;50.828;6.440;2022-08-19T05:21:15;17.30;99.90
19555;DHT22;9924;50.828;6.440;2022-08-19T05:24:00;17.40;99.90
19555;DHT22;9924;50.828;6.440;2022-08-19T05:26:26;17.40;99.90
19555;DHT22;9924;50.828;6.440;2022-08-19T05:28:52;17.40;99.90
19555;DHT22;9924;50.828;6.440;2022-08-19T05:31:18;17.40;99.90
19555;DHT22;9924;50.828;6.440;2022-08-19T05:33:44;17.50;99.90
19555;DHT22;9924;50.828;6.440;2022-08-19T05:36:11;17.50;99.90
19555;DHT22;9924;50.828;6.440;2022-08-19T05:38:37;17.50;99.90
19555;DHT22;9924;50.828;6.440;2022-08-19T05:41:07;17.60;99.90
19555;DHT22;9924;50.828;6.440;2022-08-19T05:43:34;17.70;99.90
19555;DHT22;9924;50.828;6.440;2022-08-19T05:45:59;17.80;99.90
19555;DHT22;9924;50.828;6.440;2022-08-19T05:48:26;17.90;99.90
19555;DHT22;9924;50.828;6.440;2022-08-19T05:50:51;17.90;99.90
19555;DHT22;9924;50.828;6.440;2022-08-19T05:53:17;18.00;99.90
19555;DHT22;9924;50.828;6.440;2022-08-19T05:55:43;18.10;99.90
19555;DHT22;9924;50.828;6.440;2022-08-19T05:58:09;18.20;99.90
19555;DHT22;9924;50.828;6.440;2022-08-19T06:00:36;18.30;99.90
19555;DHT22;9924;50.828;6.440;2022-08-19T06:03:02;18.30;99.90
19555;DHT22;9924;50.828;6.440;2022-08-19T06:05:32;18.30;99.90
19555;DHT22;9924;50.828;6.440;2022-08-19T06:07:58;18.40;99.90
19555;DHT22;9924;50.828;6.440;2022-08-19T06:10:27;18.40;99.90
19555;DHT22;9924;50.828;6.440;2022-08-19T06:12:54;18.40;99.90
19555;DHT22;9924;50.828;6.440;2022-08-19T06:15:21;18.50;99.90
19555;DHT22;9924;50.828;6.440;2022-08-19T06:17:51;18.50;99.90
19555;DHT22;9924;50.828;6.440;2022-08-19T06:20:16;18.50;99.90
19555;DHT22;9924;50.828;6.440;2022-08-19T06:22:46;18.50;99.90
19555;DHT22;9924;50.828;6.440;2022-08-19T06:25:13;18.60;99.90
19555;DHT22;9924;50.828;6.440;2022-08-19T06:27:43;18.60;99.90
19555;DHT22;9924;50.828;6.440;2022-08-19T06:30:09;18.70;99.90
19555;DHT22;9924;50.828;6.440;2022-08-19T06:32:37;18.70;99.90
19555;DHT22;9924;50.828;6.440;2022-08-19T06:35:04;18.70;99.90
19555;DHT22;9924;50.828;6.440;2022-08-19T06:37:30;18.80;99.90
19555;DHT22;9924;50.828;6.440;2022-08-19T06:39:56;18.90;99.90
19555;DHT22;9924;50.828;6.440;2022-08-19T06:42:22;19.00;99.90
19555;DHT22;9924;50.828;6.440;2022-08-19T06:44:48;19.10;99.90
19555;DHT22;9924;50.828;6.440;2022-08-19T06:47:18;19.10;99.90
19555;DHT22;9924;50.828;6.440;2022-08-19T06:49:44;19.10;99.90
19555;DHT22;9924;50.828;6.440;2022-08-19T06:52:12;19.20;99.90
19555;DHT22;9924;50.828;6.440;2022-08-19T06:54:38;19.40;99.90
19555;DHT22;9924;50.828;6.440;2022-08-19T06:57:05;19.50;99.90
19555;DHT22;9924;50.828;6.440;2022-08-19T06:59:35;19.80;99.90
19555;DHT22;9924;50.828;6.440;2022-08-19T07:02:04;19.90;99.90
19555;DHT22;9924;50.828;6.440;2022-08-19T07:04:33;19.90;99.90
19555;DHT22;9924;50.828;6.440;2022-08-19T07:07:06;20.00;99.90
19555;DHT22;9924;50.828;6.440;2022-08-19T07:09:33;20.00;99.90
19555;DHT22;9924;50.828;6.440;2022-08-19T07:11:59;20.00;99.90
19555;DHT22;9924;50.828;6.440;2022-08-19T07:14:27;20.10;99.90
19555;DHT22;9924;50.828;6.440;2022-08-19T07:16:54;20.10;99.90
19555;DHT22;9924;50.828;6.440;2022-08-19T07:19:22;20.20;99.90
19555;DHT22;9924;50.828;6.440;2022-08-19T07:21:49;20.30;99.90
19555;DHT22;9924;50.828;6.440;2022-08-19T07:24:19;20.60;99.90
19555;DHT22;9924;50.828;6.440;2022-08-19T07:26:45;21.00;99.90
19555;DHT22;9924;50.828;6.440;2022-08-19T07:29:12;21.40;99.90
19555;DHT22;9924;50.828;6.440;2022-08-19T07:31:38;21.80;99.90
19555;DHT22;9924;50.828;6.440;2022-08-19T07:34:06;22.20;99.90
19555;DHT22;9924;50.828;6.440;2022-08-19T07:36:32;22.50;99.90
19555;DHT22;9924;50.828;6.440;2022-08-19T07:39:00;22.80;99.90
19555;DHT22;9924;50.828;6.440;2022-08-19T07:41:28;22.90;99.90
19555;DHT22;9924;50.828;6.440;2022-08-19T07:43:54;23.00;99.90
19555;DHT22;9924;50.828;6.440;2022-08-19T07:46:20;23.10;99.90
19555;DHT22;9924;50.828;6.440;2022-08-19T07:48:48;23.20;99.90
19555;DHT22;9924;50.828;6.440;2022-08-19T07:51:17;23.40;99.90
19555;DHT22;9924;50.828;6.440;2022-08-19T07:53:43;23.60;99.90
19555;DHT22;9924;50.828;6.440;2022-08-19T07:56:13;23.80;99.90
19555;DHT22;9924;50.828;6.440;2022-08-19T07:58:42;23.90;99.90
19555;DHT22;9924;50.828;6.440;2022-08-19T08:01:14;24.10;99.90
19555;DHT22;9924;50.828;6.440;2022-08-19T08:03:41;24.50;99.90
19555;DHT22;9924;50.828;6.440;2022-08-19T08:06:25;24.60;99.90
19555;DHT22;9924;50.828;6.440;2022-08-19T08:09:11;24.80;99.90
19555;DHT22;9924;50.828;6.440;2022-08-19T08:14:27;24.80;99.90
19555;DHT22;9924;50.828;6.440;2022-08-19T08:16:53;24.80;99.90
19555;DHT22;9924;50.828;6.440;2022-08-19T08:19:20;24.60;99.90
19555;DHT22;9924;50.828;6.440;2022-08-19T08:21:47;24.70;99.90
19555;DHT22;9924;50.828;6.440;2022-08-19T08:24:14;24.70;99.90
19555;DHT22;9924;50.828;6.440;2022-08-19T08:26:40;24.60;99.90
19555;DHT22;9924;50.828;6.440;2022-08-19T08:29:06;24.80;99.90
19555;DHT22;9924;50.828;6.440;2022-08-19T08:31:34;25.00;99.90
19555;DHT22;9924;50.828;6.440;2022-08-19T08:34:00;25.20;99.90
19555;DHT22;9924;50.828;6.440;2022-08-19T08:36:26;25.30;99.90
19555;DHT22;9924;50.828;6.440;2022-08-19T08:38:52;25.20;99.90
19555;DHT22;9924;50.828;6.440;2022-08-19T08:42:12;25.10;99.90
19555;DHT22;9924;50.828;6.440;2022-08-19T08:44:22;24.60;99.90
19555;DHT22;9924;50.828;6.440;2022-08-19T08:46:56;23.80;99.90
19555;DHT22;9924;50.828;6.440;2022-08-19T08:49:45;23.60;99.90
19555;DHT22;9924;50.828;6.440;2022-08-19T08:52:36;23.50;99.90
19555;DHT22;9924;50.828;6.440;2022-08-19T08:55:10;23.50;99.90
19555;DHT22;9924;50.828;6.440;2022-08-19T08:57:49;23.80;99.90
19555;DHT22;9924;50.828;6.440;2022-08-19T09:00:22;24.10;99.90
19555;DHT22;9924;50.828;6.440;2022-08-19T09:02:49;24.40;99.90
19555;DHT22;9924;50.828;6.440;2022-08-19T09:05:15;24.80;99.90
19555;DHT22;9924;50.828;6.440;2022-08-19T09:07:57;24.90;99.90
19555;DHT22;9924;50.828;6.440;2022-08-19T09:10:38;25.10;99.90
19555;DHT22;9924;50.828;6.440;2022-08-19T09:13:18;25.20;99.90
19555;DHT22;9924;50.828;6.440;2022-08-19T09:15:56;25.40;99.90
19555;DHT22;9924;50.828;6.440;2022-08-19T09:18:23;25.70;99.90
19555;DHT22;9924;50.828;6.440;2022-08-19T09:20:49;25.80;99.90
19555;DHT22;9924;50.828;6.440;2022-08-19T09:23:15;26.00;99.90
19555;DHT22;9924;50.828;6.440;2022-08-19T09:25:41;26.30;99.90
19555;DHT22;9924;50.828;6.440;2022-08-19T09:28:07;26.60;99.90
19555;DHT22;9924;50.828;6.440;2022-08-19T09:30:39;26.80;99.90
19555;DHT22;9924;50.828;6.440;2022-08-19T09:33:05;26.60;99.90
19555;DHT22;9924;50.828;6.440;2022-08-19T09:35:32;26.20;99.90
19555;DHT22;9924;50.828;6.440;2022-08-19T09:37:59;25.80;99.90
19555;DHT22;9924;50.828;6.440;2022-08-19T09:40:30;25.50;99.90
19555;DHT22;9924;50.828;6.440;2022-08-19T09:42:55;25.80;99.90
19555;DHT22;9924;50.828;6.440;2022-08-19T09:45:23;26.10;99.90
19555;DHT22;9924;50.828;6.440;2022-08-19T09:47:52;26.30;99.90
19555;DHT22;9924;50.828;6.440;2022-08-19T09:50:18;26.30;99.90
19555;DHT22;9924;50.828;6.440;2022-08-19T09:52:45;26.20;99.90
19555;DHT22;9924;50.828;6.440;2022-08-19T09:55:11;26.20;99.90
19555;DHT22;9924;50.828;6.440;2022-08-19T09:57:38;26.20;99.90
19555;DHT22;9924;50.828;6.440;2022-08-19T10:00:06;26.00;99.90
19555;DHT22;9924;50.828;6.440;2022-08-19T10:02:32;26.10;99.90
19555;DHT22;9924;50.828;6.440;2022-08-19T10:04:58;26.10;99.90
19555;DHT22;9924;50.828;6.440;2022-08-19T10:07:42;26.10;99.90
19555;DHT22;9924;50.828;6.440;2022-08-19T10:10:08;26.30;99.90
19555;DHT22;9924;50.828;6.440;2022-08-19T10:12:35;26.50;99.90
19555;DHT22;9924;50.828;6.440;2022-08-19T10:15:01;26.70;99.90
19555;DHT22;9924;50.828;6.440;2022-08-19T10:17:27;26.90;99.90
19555;DHT22;9924;50.828;6.440;2022-08-19T10:19:54;27.10;99.90
19555;DHT22;9924;50.828;6.440;2022-08-19T10:22:20;27.40;99.90
19555;DHT22;9924;50.828;6.440;2022-08-19T10:24:46;27.60;99.90
19555;DHT22;9924;50.828;6.440;2022-08-19T10:27:12;27.50;99.90
19555;DHT22;9924;50.828;6.440;2022-08-19T10:29:39;27.30;99.90
19555;DHT22;9924;50.828;6.440;2022-08-19T10:32:07;27.20;99.90
19555;DHT22;9924;50.828;6.440;2022-08-19T10:34:35;27.10;99.90
19555;DHT22;9924;50.828;6.440;2022-08-19T10:37:03;26.80;99.90
19555;DHT22;9924;50.828;6.440;2022-08-19T10:39:33;26.40;99.90
19555;DHT22;9924;50.828;6.440;2022-08-19T10:41:59;25.90;99.90
19555;DHT22;9924;50.828;6.440;2022-08-19T10:44:25;25.70;99.90
19555;DHT22;9924;50.828;6.440;2022-08-19T10:46:51;25.70;99.90
19555;DHT22;9924;50.828;6.440;2022-08-19T10:49:17;26.20;99.90
19555;DHT22;9924;50.828;6.440;2022-08-19T10:51:45;26.50;99.90
19555;DHT22;9924;50.828;6.440;2022-08-19T10:54:29;26.70;99.90
19555;DHT22;9924;50.828;6.440;2022-08-19T10:57:16;26.90;99.90
19555;DHT22;9924;50.828;6.440;2022-08-19T10:59:42;26.80;99.90
19555;DHT22;9924;50.828;6.440;2022-08-19T11:02:09;26.90;99.90
19555;DHT22;9924;50.828;6.440;2022-08-19T11:04:37;27.20;99.90
19555;DHT22;9924;50.828;6.440;2022-08-19T11:07:03;27.60;99.90
19555;DHT22;9924;50.828;6.440;2022-08-19T11:09:30;28.20;99.90
19555;DHT22;9924;50.828;6.440;2022-08-19T11:11:56;28.50;99.90
19555;DHT22;9924;50.828;6.440;2022-08-19T11:14:23;28.90;99.90
19555;DHT22;9924;50.828;6.440;2022-08-19T11:16:51;28.70;99.90
19555;DHT22;9924;50.828;6.440;2022-08-19T11:19:19;28.40;99.90
19555;DHT22;9924;50.828;6.440;2022-08-19T11:21:47;28.50;99.90
19555;DHT22;9924;50.828;6.440;2022-08-19T11:24:18;28.60;99.90
19555;DHT22;9924;50.828;6.440;2022-08-19T11:26:45;28.80;99.90
19555;DHT22;9924;50.828;6.440;2022-08-19T11:29:13;29.20;99.90
19555;DHT22;9924;50.828;6.440;2022-08-19T11:31:41;29.10;99.90
19555;DHT22;9924;50.828;6.440;2022-08-19T11:34:10;28.80;99.90
19555;DHT22;9924;50.828;6.440;2022-08-19T11:36:39;28.70;99.90
19555;DHT22;9924;50.828;6.440;2022-08-19T11:39:07;29.10;99.90
19555;DHT22;9924;50.828;6.440;2022-08-19T11:41:33;29.30;99.90
19555;DHT22;9924;50.828;6.440;2022-08-19T11:43:59;29.40;99.90
19555;DHT22;9924;50.828;6.440;2022-08-19T11:46:26;29.80;99.90
19555;DHT22;9924;50.828;6.440;2022-08-19T11:48:56;29.90;99.90
19555;DHT22;9924;50.828;6.440;2022-08-19T11:51:24;29.90;99.80
19555;DHT22;9924;50.828;6.440;2022-08-19T11:53:51;30.00;99.90
19555;DHT22;9924;50.828;6.440;2022-08-19T11:56:18;30.50;99.90
19555;DHT22;9924;50.828;6.440;2022-08-19T11:58:44;30.90;99.50
19555;DHT22;9924;50.828;6.440;2022-08-19T12:01:12;31.10;98.60
19555;DHT22;9924;50.828;6.440;2022-08-19T12:03:40;31.10;98.70
19555;DHT22;9924;50.828;6.440;2022-08-19T12:06:08;30.90;98.20
19555;DHT22;9924;50.828;6.440;2022-08-19T12:08:34;30.60;98.30
19555;DHT22;9924;50.828;6.440;2022-08-19T12:11:00;30.40;98.90
19555;DHT22;9924;50.828;6.440;2022-08-19T12:13:28;30.40;99.30
19555;DHT22;9924;50.828;6.440;2022-08-19T12:15:54;30.60;99.30
19555;DHT22;9924;50.828;6.440;2022-08-19T12:18:20;31.00;98.20
19555;DHT22;9924;50.828;6.440;2022-08-19T12:20:46;31.60;97.10
19555;DHT22;9924;50.828;6.440;2022-08-19T12:23:13;31.60;97.30
19555;DHT22;9924;50.828;6.440;2022-08-19T12:25:47;31.50;97.00
19555;DHT22;9924;50.828;6.440;2022-08-19T12:28:21;31.00;97.60
19555;DHT22;9924;50.828;6.440;2022-08-19T12:30:48;30.60;98.40
19555;DHT22;9924;50.828;6.440;2022-08-19T12:33:14;30.90;97.90
19555;DHT22;9924;50.828;6.440;2022-08-19T12:35:41;30.90;97.40
19555;DHT22;9924;50.828;6.440;2022-08-19T12:38:08;30.90;97.20
19555;DHT22;9924;50.828;6.440;2022-08-19T12:40:34;31.20;96.90
19555;DHT22;9924;50.828;6.440;2022-08-19T12:43:03;31.50;96.70
19555;DHT22;9924;50.828;6.440;2022-08-19T12:45:29;31.30;96.30
19555;DHT22;9924;50.828;6.440;2022-08-19T12:47:55;31.30;97.40
19555;DHT22;9924;50.828;6.440;2022-08-19T12:50:21;31.40;97.20
19555;DHT22;9924;50.828;6.440;2022-08-19T12:52:47;31.70;96.90
19555;DHT22;9924;50.828;6.440;2022-08-19T12:55:13;31.90;96.20
19555;DHT22;9924;50.828;6.440;2022-08-19T12:57:39;32.10;96.20
19555;DHT22;9924;50.828;6.440;2022-08-19T13:00:17;32.10;95.60
19555;DHT22;9924;50.828;6.440;2022-08-19T13:02:45;31.80;96.00
19555;DHT22;9924;50.828;6.440;2022-08-19T13:05:13;31.60;96.30
19555;DHT22;9924;50.828;6.440;2022-08-19T13:07:40;31.50;96.60
19555;DHT22;9924;50.828;6.440;2022-08-19T13:10:08;31.70;96.00
19555;DHT22;9924;50.828;6.440;2022-08-19T13:12:35;32.00;95.90
19555;DHT22;9924;50.828;6.440;2022-08-19T13:15:01;32.20;95.40
19555;DHT22;9924;50.828;6.440;2022-08-19T13:17:27;32.10;95.00
19555;DHT22;9924;50.828;6.440;2022-08-19T13:19:53;32.00;95.00
19555;DHT22;9924;50.828;6.440;2022-08-19T13:22:18;31.90;95.20
19555;DHT22;9924;50.828;6.440;2022-08-19T13:24:44;32.20;95.00
19555;DHT22;9924;50.828;6.440;2022-08-19T13:27:10;32.60;94.30
19555;DHT22;9924;50.828;6.440;2022-08-19T13:29:36;32.90;94.00
19555;DHT22;9924;50.828;6.440;2022-08-19T13:32:20;33.00;92.80
19555;DHT22;9924;50.828;6.440;2022-08-19T13:35:05;33.00;92.80
19555;DHT22;9924;50.828;6.440;2022-08-19T13:37:31;32.90;92.00
19555;DHT22;9924;50.828;6.440;2022-08-19T13:40:18;32.60;91.00
19555;DHT22;9924;50.828;6.440;2022-08-19T13:42:47;32.30;90.60
19555;DHT22;9924;50.828;6.440;2022-08-19T13:45:14;31.80;91.70
19555;DHT22;9924;50.828;6.440;2022-08-19T13:47:40;31.80;91.50
19555;DHT22;9924;50.828;6.440;2022-08-19T13:50:12;32.10;91.80
19555;DHT22;9924;50.828;6.440;2022-08-19T13:52:39;32.20;92.40
19555;DHT22;9924;50.828;6.440;2022-08-19T13:55:06;32.60;92.10
19555;DHT22;9924;50.828;6.440;2022-08-19T13:57:32;32.90;92.10
19555;DHT22;9924;50.828;6.440;2022-08-19T14:00:00;33.00;92.30
19555;DHT22;9924;50.828;6.440;2022-08-19T14:02:26;33.10;92.50
19555;DHT22;9924;50.828;6.440;2022-08-19T14:04:52;33.10;92.30
19555;DHT22;9924;50.828;6.440;2022-08-19T14:07:18;33.10;92.50
19555;DHT22;9924;50.828;6.440;2022-08-19T14:09:44;32.70;92.50
19555;DHT22;9924;50.828;6.440;2022-08-19T14:12:10;32.70;92.50
19555;DHT22;9924;50.828;6.440;2022-08-19T14:14:38;32.50;92.60
19555;DHT22;9924;50.828;6.440;2022-08-19T14:17:08;32.20;93.30
19555;DHT22;9924;50.828;6.440;2022-08-19T14:19:34;32.00;93.30
19555;DHT22;9924;50.828;6.440;2022-08-19T14:22:00;32.10;93.80
19555;DHT22;9924;50.828;6.440;2022-08-19T14:24:27;32.50;93.50
19555;DHT22;9924;50.828;6.440;2022-08-19T14:26:53;32.90;92.60
19555;DHT22;9924;50.828;6.440;2022-08-19T14:29:18;32.70;92.80
19555;DHT22;9924;50.828;6.440;2022-08-19T14:31:47;32.80;92.80
19555;DHT22;9924;50.828;6.440;2022-08-19T14:34:13;32.40;92.70
19555;DHT22;9924;50.828;6.440;2022-08-19T14:36:38;32.20;93.80
19555;DHT22;9924;50.828;6.440;2022-08-19T14:39:05;32.50;93.50
19555;DHT22;9924;50.828;6.440;2022-08-19T14:41:30;32.90;92.90
19555;DHT22;9924;50.828;6.440;2022-08-19T14:43:57;33.30;92.40
19555;DHT22;9924;50.828;6.440;2022-08-19T14:46:24;32.90;92.40
19555;DHT22;9924;50.828;6.440;2022-08-19T14:48:54;32.00;93.20
19555;DHT22;9924;50.828;6.440;2022-08-19T14:51:24;31.30;94.20
19555;DHT22;9924;50.828;6.440;2022-08-19T14:53:50;30.80;94.80
19555;DHT22;9924;50.828;6.440;2022-08-19T14:56:20;30.40;95.60
19555;DHT22;9924;50.828;6.440;2022-08-19T14:58:46;30.00;96.20
19555;DHT22;9924;50.828;6.440;2022-08-19T15:01:12;29.90;96.70
19555;DHT22;9924;50.828;6.440;2022-08-19T15:03:39;29.70;96.70
19555;DHT22;9924;50.828;6.440;2022-08-19T15:06:06;29.40;97.50
19555;DHT22;9924;50.828;6.440;2022-08-19T15:08:33;29.40;97.80
19555;DHT22;9924;50.828;6.440;2022-08-19T15:11:01;29.00;98.10
19555;DHT22;9924;50.828;6.440;2022-08-19T15:13:28;28.60;99.20
19555;DHT22;9924;50.828;6.440;2022-08-19T15:15:54;28.40;99.70
19555;DHT22;9924;50.828;6.440;2022-08-19T15:18:21;28.20;99.90
19555;DHT22;9924;50.828;6.440;2022-08-19T15:20:48;28.00;99.90
19555;DHT22;9924;50.828;6.440;2022-08-19T15:23:17;27.90;99.90
19555;DHT22;9924;50.828;6.440;2022-08-19T15:25:44;27.80;99.90
19555;DHT22;9924;50.828;6.440;2022-08-19T15:28:10;27.60;99.90
19555;DHT22;9924;50.828;6.440;2022-08-19T15:30:37;27.50;99.90
19555;DHT22;9924;50.828;6.440;2022-08-19T15:33:03;27.40;99.90
19555;DHT22;9924;50.828;6.440;2022-08-19T15:35:30;27.30;99.90
19555;DHT22;9924;50.828;6.440;2022-08-19T15:37:56;27.20;99.90
19555;DHT22;9924;50.828;6.440;2022-08-19T15:40:23;27.00;99.90
19555;DHT22;9924;50.828;6.440;2022-08-19T15:42:49;26.80;99.90
19555;DHT22;9924;50.828;6.440;2022-08-19T15:45:16;26.70;99.90
19555;DHT22;9924;50.828;6.440;2022-08-19T15:47:43;26.60;99.90
19555;DHT22;9924;50.828;6.440;2022-08-19T15:50:15;26.60;99.90
19555;DHT22;9924;50.828;6.440;2022-08-19T15:52:47;26.60;99.90